Edgeworth, Pennsylvania
Current Conditions -  °F | °C
As of 5:51 PM on Tuesday 25 Nov 2014 (Local Time) from KPIT Reporting Station
Few Clouds Few Clouds  
Wind Chill: -1°   Ceiling: Unl
Heat Index:   Visibility: 10mi
Dew Point: -3°   Wind: 12mph
Humidity: 65%   Direction: 310°NW
Pressure: 30.11"   Gusts: NA
Location:  40.5741°N, 80.1457°W
Report Text: KPIT 252251Z 31010KT 10SM FEW250 03/M03 A3011 RMK AO2 SLP211 T00331028
Loading
Personal Weather Stations






























Interactive Weather Map New forecast layout! Learn more

10-Day Weather Forecast

Advertisements
Track Severe Weather on mobile